sensor_id;sensor_type;location;lat;lon;timestamp;P1;durP1;ratioP1;P2;durP2;ratioP2
3487;SDS011;38546;48.170;11.724;2024-03-02T00:00:24;17.10;;;11.70;;
3487;SDS011;38546;48.170;11.724;2024-03-02T00:02:55;14.90;;;11.47;;
3487;SDS011;38546;48.170;11.724;2024-03-02T00:05:26;16.83;;;11.67;;
3487;SDS011;38546;48.170;11.724;2024-03-02T00:07:57;17.43;;;11.53;;
3487;SDS011;38546;48.170;11.724;2024-03-02T00:10:31;17.47;;;11.60;;
3487;SDS011;38546;48.170;11.724;2024-03-02T00:13:09;17.13;;;11.60;;
3487;SDS011;38546;48.170;11.724;2024-03-02T00:15:46;18.13;;;12.33;;
3487;SDS011;38546;48.170;11.724;2024-03-02T00:18:25;15.00;;;10.07;;
3487;SDS011;38546;48.170;11.724;2024-03-02T00:21:01;19.43;;;10.67;;
3487;SDS011;38546;48.170;11.724;2024-03-02T00:23:33;15.90;;;11.00;;
3487;SDS011;38546;48.170;11.724;2024-03-02T00:26:05;18.93;;;11.77;;
3487;SDS011;38546;48.170;11.724;2024-03-02T00:28:36;19.63;;;12.30;;
3487;SDS011;38546;48.170;11.724;2024-03-02T00:31:11;22.30;;;13.40;;
3487;SDS011;38546;48.170;11.724;2024-03-02T00:33:44;18.70;;;12.03;;
3487;SDS011;38546;48.170;11.724;2024-03-02T00:36:22;19.90;;;12.20;;
3487;SDS011;38546;48.170;11.724;2024-03-02T00:38:57;22.60;;;11.63;;
3487;SDS011;38546;48.170;11.724;2024-03-02T00:41:30;21.03;;;11.20;;
3487;SDS011;38546;48.170;11.724;2024-03-02T00:44:02;21.87;;;12.43;;
3487;SDS011;38546;48.170;11.724;2024-03-02T00:46:43;15.80;;;10.33;;
3487;SDS011;38546;48.170;11.724;2024-03-02T00:49:18;17.83;;;10.50;;
3487;SDS011;38546;48.170;11.724;2024-03-02T00:51:54;20.57;;;13.40;;
3487;SDS011;38546;48.170;11.724;2024-03-02T00:54:25;19.00;;;12.40;;
3487;SDS011;38546;48.170;11.724;2024-03-02T00:56:58;25.20;;;14.67;;
3487;SDS011;38546;48.170;11.724;2024-03-02T00:59:29;17.53;;;11.30;;
3487;SDS011;38546;48.170;11.724;2024-03-02T01:02:01;17.10;;;12.20;;
3487;SDS011;38546;48.170;11.724;2024-03-02T01:04:32;15.90;;;11.40;;
3487;SDS011;38546;48.170;11.724;2024-03-02T01:07:03;16.43;;;10.80;;
3487;SDS011;38546;48.170;11.724;2024-03-02T01:09:34;18.20;;;11.50;;
3487;SDS011;38546;48.170;11.724;2024-03-02T01:12:05;16.03;;;10.63;;
3487;SDS011;38546;48.170;11.724;2024-03-02T01:14:36;15.80;;;11.27;;
3487;SDS011;38546;48.170;11.724;2024-03-02T01:17:07;20.00;;;11.70;;
3487;SDS011;38546;48.170;11.724;2024-03-02T01:19:38;14.53;;;10.30;;
3487;SDS011;38546;48.170;11.724;2024-03-02T01:22:10;17.73;;;11.10;;
3487;SDS011;38546;48.170;11.724;2024-03-02T01:24:41;20.17;;;11.93;;
3487;SDS011;38546;48.170;11.724;2024-03-02T01:27:13;20.40;;;12.20;;
3487;SDS011;38546;48.170;11.724;2024-03-02T01:29:44;18.10;;;12.13;;
3487;SDS011;38546;48.170;11.724;2024-03-02T01:32:15;18.70;;;12.50;;
3487;SDS011;38546;48.170;11.724;2024-03-02T01:34:46;17.93;;;10.60;;
3487;SDS011;38546;48.170;11.724;2024-03-02T01:37:16;19.53;;;11.60;;
3487;SDS011;38546;48.170;11.724;2024-03-02T01:39:47;17.13;;;10.87;;
3487;SDS011;38546;48.170;11.724;2024-03-02T01:42:17;20.43;;;11.47;;
3487;SDS011;38546;48.170;11.724;2024-03-02T01:44:48;22.13;;;12.40;;
3487;SDS011;38546;48.170;11.724;2024-03-02T01:47:19;20.87;;;12.87;;
3487;SDS011;38546;48.170;11.724;2024-03-02T01:49:49;17.60;;;10.93;;
3487;SDS011;38546;48.170;11.724;2024-03-02T01:52:20;17.57;;;11.67;;
3487;SDS011;38546;48.170;11.724;2024-03-02T01:54:51;15.33;;;11.30;;
3487;SDS011;38546;48.170;11.724;2024-03-02T01:57:22;21.80;;;12.43;;
3487;SDS011;38546;48.170;11.724;2024-03-02T01:59:52;17.93;;;11.20;;
3487;SDS011;38546;48.170;11.724;2024-03-02T02:02:23;18.17;;;12.17;;
3487;SDS011;38546;48.170;11.724;2024-03-02T02:04:54;18.50;;;11.40;;
3487;SDS011;38546;48.170;11.724;2024-03-02T02:07:24;18.03;;;11.40;;
3487;SDS011;38546;48.170;11.724;2024-03-02T02:09:55;17.60;;;11.40;;
3487;SDS011;38546;48.170;11.724;2024-03-02T02:12:26;18.70;;;11.90;;
3487;SDS011;38546;48.170;11.724;2024-03-02T02:14:57;20.83;;;12.67;;
3487;SDS011;38546;48.170;11.724;2024-03-02T02:17:28;21.60;;;13.30;;
3487;SDS011;38546;48.170;11.724;2024-03-02T02:20:00;19.70;;;12.63;;
3487;SDS011;38546;48.170;11.724;2024-03-02T02:22:30;17.47;;;11.60;;
3487;SDS011;38546;48.170;11.724;2024-03-02T02:25:01;22.37;;;12.57;;
3487;SDS011;38546;48.170;11.724;2024-03-02T02:27:31;17.40;;;13.10;;
3487;SDS011;38546;48.170;11.724;2024-03-02T02:30:02;19.50;;;12.80;;
3487;SDS011;38546;48.170;11.724;2024-03-02T02:32:34;17.80;;;11.53;;
3487;SDS011;38546;48.170;11.724;2024-03-02T02:35:05;19.77;;;11.83;;
3487;SDS011;38546;48.170;11.724;2024-03-02T02:37:37;17.43;;;12.30;;
3487;SDS011;38546;48.170;11.724;2024-03-02T02:40:09;24.67;;;12.53;;
3487;SDS011;38546;48.170;11.724;2024-03-02T02:42:40;21.67;;;12.23;;
3487;SDS011;38546;48.170;11.724;2024-03-02T02:45:11;25.50;;;13.60;;
3487;SDS011;38546;48.170;11.724;2024-03-02T02:47:44;20.83;;;13.00;;
3487;SDS011;38546;48.170;11.724;2024-03-02T02:50:15;19.30;;;13.30;;
3487;SDS011;38546;48.170;11.724;2024-03-02T02:52:45;22.97;;;14.70;;
3487;SDS011;38546;48.170;11.724;2024-03-02T02:55:16;19.80;;;13.37;;
3487;SDS011;38546;48.170;11.724;2024-03-02T02:57:47;23.13;;;14.27;;
3487;SDS011;38546;48.170;11.724;2024-03-02T03:00:18;24.57;;;13.20;;
3487;SDS011;38546;48.170;11.724;2024-03-02T03:02:50;23.57;;;14.30;;
3487;SDS011;38546;48.170;11.724;2024-03-02T03:05:21;23.23;;;13.77;;
3487;SDS011;38546;48.170;11.724;2024-03-02T03:07:51;22.70;;;14.13;;
3487;SDS011;38546;48.170;11.724;2024-03-02T03:10:22;21.10;;;13.33;;
3487;SDS011;38546;48.170;11.724;2024-03-02T03:12:53;21.77;;;13.53;;
3487;SDS011;38546;48.170;11.724;2024-03-02T03:15:26;22.67;;;13.80;;
3487;SDS011;38546;48.170;11.724;2024-03-02T03:17:56;22.93;;;14.40;;
3487;SDS011;38546;48.170;11.724;2024-03-02T03:20:27;23.93;;;13.60;;
3487;SDS011;38546;48.170;11.724;2024-03-02T03:22:58;19.70;;;13.07;;
3487;SDS011;38546;48.170;11.724;2024-03-02T03:25:29;21.97;;;14.03;;
3487;SDS011;38546;48.170;11.724;2024-03-02T03:28:00;20.67;;;13.10;;
3487;SDS011;38546;48.170;11.724;2024-03-02T03:30:31;19.77;;;13.37;;
3487;SDS011;38546;48.170;11.724;2024-03-02T03:33:02;23.63;;;15.17;;
3487;SDS011;38546;48.170;11.724;2024-03-02T03:35:33;35.77;;;19.90;;
3487;SDS011;38546;48.170;11.724;2024-03-02T03:38:04;28.13;;;16.00;;
3487;SDS011;38546;48.170;11.724;2024-03-02T03:40:35;27.13;;;15.13;;
3487;SDS011;38546;48.170;11.724;2024-03-02T03:43:06;27.40;;;16.73;;
3487;SDS011;38546;48.170;11.724;2024-03-02T03:45:37;25.50;;;15.50;;
3487;SDS011;38546;48.170;11.724;2024-03-02T03:48:07;24.23;;;15.03;;
3487;SDS011;38546;48.170;11.724;2024-03-02T03:50:39;27.30;;;15.93;;
3487;SDS011;38546;48.170;11.724;2024-03-02T03:53:09;27.77;;;15.33;;
3487;SDS011;38546;48.170;11.724;2024-03-02T03:55:40;23.87;;;13.43;;
3487;SDS011;38546;48.170;11.724;2024-03-02T03:58:11;24.07;;;12.00;;
3487;SDS011;38546;48.170;11.724;2024-03-02T04:00:42;21.43;;;12.80;;
3487;SDS011;38546;48.170;11.724;2024-03-02T04:03:13;19.97;;;12.60;;
3487;SDS011;38546;48.170;11.724;2024-03-02T04:05:44;22.63;;;14.17;;
3487;SDS011;38546;48.170;11.724;2024-03-02T04:08:14;23.10;;;12.30;;
3487;SDS011;38546;48.170;11.724;2024-03-02T04:10:45;23.67;;;13.40;;
3487;SDS011;38546;48.170;11.724;2024-03-02T04:13:16;23.63;;;11.73;;
3487;SDS011;38546;48.170;11.724;2024-03-02T04:15:46;27.00;;;13.77;;
3487;SDS011;38546;48.170;11.724;2024-03-02T04:18:17;26.37;;;14.53;;
3487;SDS011;38546;48.170;11.724;2024-03-02T04:20:48;24.37;;;12.13;;
3487;SDS011;38546;48.170;11.724;2024-03-02T04:23:19;20.63;;;12.40;;
3487;SDS011;38546;48.170;11.724;2024-03-02T04:25:49;21.53;;;13.60;;
3487;SDS011;38546;48.170;11.724;2024-03-02T04:28:20;20.80;;;12.87;;
3487;SDS011;38546;48.170;11.724;2024-03-02T04:30:51;21.03;;;12.63;;
3487;SDS011;38546;48.170;11.724;2024-03-02T04:33:21;25.07;;;13.70;;
3487;SDS011;38546;48.170;11.724;2024-03-02T04:35:52;29.30;;;15.37;;
3487;SDS011;38546;48.170;11.724;2024-03-02T04:38:23;24.33;;;14.20;;
3487;SDS011;38546;48.170;11.724;2024-03-02T04:40:53;25.00;;;14.77;;
3487;SDS011;38546;48.170;11.724;2024-03-02T04:43:24;22.90;;;14.40;;
3487;SDS011;38546;48.170;11.724;2024-03-02T04:45:55;29.30;;;17.20;;
3487;SDS011;38546;48.170;11.724;2024-03-02T04:48:25;29.13;;;15.80;;
3487;SDS011;38546;48.170;11.724;2024-03-02T04:50:57;26.67;;;13.93;;
3487;SDS011;38546;48.170;11.724;2024-03-02T04:53:27;25.43;;;14.07;;
3487;SDS011;38546;48.170;11.724;2024-03-02T04:55:58;25.00;;;14.03;;
3487;SDS011;38546;48.170;11.724;2024-03-02T04:58:47;23.87;;;14.30;;
3487;SDS011;38546;48.170;11.724;2024-03-02T05:01:18;21.63;;;12.83;;
3487;SDS011;38546;48.170;11.724;2024-03-02T05:03:48;25.87;;;14.93;;
3487;SDS011;38546;48.170;11.724;2024-03-02T05:06:19;28.40;;;14.87;;
3487;SDS011;38546;48.170;11.724;2024-03-02T05:08:50;32.67;;;15.90;;
3487;SDS011;38546;48.170;11.724;2024-03-02T05:11:20;25.10;;;14.37;;
3487;SDS011;38546;48.170;11.724;2024-03-02T05:14:09;22.47;;;13.43;;
3487;SDS011;38546;48.170;11.724;2024-03-02T05:16:40;19.97;;;13.77;;
3487;SDS011;38546;48.170;11.724;2024-03-02T05:19:11;22.57;;;14.17;;
3487;SDS011;38546;48.170;11.724;2024-03-02T05:21:42;29.40;;;16.37;;
3487;SDS011;38546;48.170;11.724;2024-03-02T05:24:13;28.10;;;15.60;;
3487;SDS011;38546;48.170;11.724;2024-03-02T05:26:44;42.50;;;22.37;;
3487;SDS011;38546;48.170;11.724;2024-03-02T05:29:14;37.03;;;21.57;;
3487;SDS011;38546;48.170;11.724;2024-03-02T05:31:45;39.87;;;20.77;;
3487;SDS011;38546;48.170;11.724;2024-03-02T05:34:15;32.37;;;18.20;;
3487;SDS011;38546;48.170;11.724;2024-03-02T05:36:46;34.03;;;17.20;;
3487;SDS011;38546;48.170;11.724;2024-03-02T05:39:17;33.87;;;18.43;;
3487;SDS011;38546;48.170;11.724;2024-03-02T05:41:48;26.83;;;15.63;;
3487;SDS011;38546;48.170;11.724;2024-03-02T05:44:18;25.67;;;14.77;;
3487;SDS011;38546;48.170;11.724;2024-03-02T05:46:49;28.57;;;16.33;;
3487;SDS011;38546;48.170;11.724;2024-03-02T05:49:20;27.73;;;16.13;;
3487;SDS011;38546;48.170;11.724;2024-03-02T05:51:50;27.57;;;14.97;;
3487;SDS011;38546;48.170;11.724;2024-03-02T05:54:21;27.60;;;14.83;;
3487;SDS011;38546;48.170;11.724;2024-03-02T05:56:52;30.20;;;15.87;;
3487;SDS011;38546;48.170;11.724;2024-03-02T05:59:23;25.80;;;16.03;;
3487;SDS011;38546;48.170;11.724;2024-03-02T06:01:53;28.60;;;15.87;;
3487;SDS011;38546;48.170;11.724;2024-03-02T06:04:24;28.80;;;15.40;;
3487;SDS011;38546;48.170;11.724;2024-03-02T06:06:55;25.30;;;13.80;;
3487;SDS011;38546;48.170;11.724;2024-03-02T06:09:26;22.37;;;14.83;;
3487;SDS011;38546;48.170;11.724;2024-03-02T06:11:56;23.13;;;14.10;;
3487;SDS011;38546;48.170;11.724;2024-03-02T06:14:27;26.40;;;15.20;;
3487;SDS011;38546;48.170;11.724;2024-03-02T06:16:57;27.77;;;15.20;;
3487;SDS011;38546;48.170;11.724;2024-03-02T06:19:29;28.20;;;14.40;;
3487;SDS011;38546;48.170;11.724;2024-03-02T06:22:00;25.00;;;14.87;;
3487;SDS011;38546;48.170;11.724;2024-03-02T06:24:30;27.07;;;15.63;;
3487;SDS011;38546;48.170;11.724;2024-03-02T06:27:01;32.03;;;16.10;;
3487;SDS011;38546;48.170;11.724;2024-03-02T06:29:32;28.20;;;16.23;;
3487;SDS011;38546;48.170;11.724;2024-03-02T06:32:06;29.43;;;16.43;;
3487;SDS011;38546;48.170;11.724;2024-03-02T06:34:37;32.60;;;17.20;;
3487;SDS011;38546;48.170;11.724;2024-03-02T06:37:07;32.57;;;19.97;;
3487;SDS011;38546;48.170;11.724;2024-03-02T06:39:38;26.77;;;15.90;;
3487;SDS011;38546;48.170;11.724;2024-03-02T06:42:08;34.93;;;18.10;;
3487;SDS011;38546;48.170;11.724;2024-03-02T06:44:39;24.70;;;15.40;;
3487;SDS011;38546;48.170;11.724;2024-03-02T06:47:10;27.00;;;15.93;;
3487;SDS011;38546;48.170;11.724;2024-03-02T06:49:40;30.83;;;16.60;;
3487;SDS011;38546;48.170;11.724;2024-03-02T06:52:12;26.93;;;16.40;;
3487;SDS011;38546;48.170;11.724;2024-03-02T06:54:43;32.20;;;17.70;;
3487;SDS011;38546;48.170;11.724;2024-03-02T06:57:14;24.60;;;15.33;;
3487;SDS011;38546;48.170;11.724;2024-03-02T06:59:46;30.60;;;14.60;;
3487;SDS011;38546;48.170;11.724;2024-03-02T07:02:18;31.77;;;16.33;;
3487;SDS011;38546;48.170;11.724;2024-03-02T07:04:50;24.67;;;14.83;;
3487;SDS011;38546;48.170;11.724;2024-03-02T07:07:21;30.97;;;17.40;;
3487;SDS011;38546;48.170;11.724;2024-03-02T07:09:52;30.80;;;15.40;;
3487;SDS011;38546;48.170;11.724;2024-03-02T07:12:22;30.53;;;16.20;;
3487;SDS011;38546;48.170;11.724;2024-03-02T07:14:53;27.40;;;17.33;;
3487;SDS011;38546;48.170;11.724;2024-03-02T07:17:34;38.03;;;18.53;;
3487;SDS011;38546;48.170;11.724;2024-03-02T07:20:07;28.53;;;17.40;;
3487;SDS011;38546;48.170;11.724;2024-03-02T07:22:38;31.10;;;17.30;;
3487;SDS011;38546;48.170;11.724;2024-03-02T07:25:09;28.93;;;17.47;;
3487;SDS011;38546;48.170;11.724;2024-03-02T07:27:40;30.60;;;16.87;;
3487;SDS011;38546;48.170;11.724;2024-03-02T07:30:13;31.63;;;17.80;;
3487;SDS011;38546;48.170;11.724;2024-03-02T07:32:46;31.70;;;18.50;;
3487;SDS011;38546;48.170;11.724;2024-03-02T07:35:20;27.90;;;17.63;;
3487;SDS011;38546;48.170;11.724;2024-03-02T07:37:52;31.57;;;17.70;;
3487;SDS011;38546;48.170;11.724;2024-03-02T07:40:23;26.97;;;17.00;;
3487;SDS011;38546;48.170;11.724;2024-03-02T07:42:54;31.60;;;19.17;;
3487;SDS011;38546;48.170;11.724;2024-03-02T07:45:28;34.03;;;17.73;;
3487;SDS011;38546;48.170;11.724;2024-03-02T07:47:59;32.70;;;18.50;;
3487;SDS011;38546;48.170;11.724;2024-03-02T07:50:29;32.73;;;18.53;;
3487;SDS011;38546;48.170;11.724;2024-03-02T07:53:03;32.83;;;18.50;;
3487;SDS011;38546;48.170;11.724;2024-03-02T07:55:34;36.03;;;20.70;;
3487;SDS011;38546;48.170;11.724;2024-03-02T07:58:05;44.00;;;25.60;;
3487;SDS011;38546;48.170;11.724;2024-03-02T08:00:38;35.17;;;19.23;;
3487;SDS011;38546;48.170;11.724;2024-03-02T08:03:10;35.13;;;20.27;;
3487;SDS011;38546;48.170;11.724;2024-03-02T08:05:41;41.87;;;23.30;;
3487;SDS011;38546;48.170;11.724;2024-03-02T08:08:12;44.57;;;24.70;;
3487;SDS011;38546;48.170;11.724;2024-03-02T08:10:42;42.10;;;24.33;;
3487;SDS011;38546;48.170;11.724;2024-03-02T08:13:13;51.60;;;23.60;;
3487;SDS011;38546;48.170;11.724;2024-03-02T08:15:44;41.37;;;21.80;;
3487;SDS011;38546;48.170;11.724;2024-03-02T08:18:14;39.53;;;21.43;;
3487;SDS011;38546;48.170;11.724;2024-03-02T08:20:45;47.20;;;25.00;;
3487;SDS011;38546;48.170;11.724;2024-03-02T08:23:16;36.73;;;21.40;;
3487;SDS011;38546;48.170;11.724;2024-03-02T08:25:47;51.70;;;27.07;;
3487;SDS011;38546;48.170;11.724;2024-03-02T08:28:18;45.73;;;25.40;;
3487;SDS011;38546;48.170;11.724;2024-03-02T08:30:49;42.37;;;23.50;;
3487;SDS011;38546;48.170;11.724;2024-03-02T08:33:20;39.43;;;23.03;;
3487;SDS011;38546;48.170;11.724;2024-03-02T08:35:51;45.83;;;25.90;;
3487;SDS011;38546;48.170;11.724;2024-03-02T08:38:22;47.67;;;26.27;;
3487;SDS011;38546;48.170;11.724;2024-03-02T08:40:53;53.23;;;27.33;;
3487;SDS011;38546;48.170;11.724;2024-03-02T08:43:23;47.50;;;24.77;;
3487;SDS011;38546;48.170;11.724;2024-03-02T08:45:55;47.90;;;25.37;;
3487;SDS011;38546;48.170;11.724;2024-03-02T08:48:25;48.03;;;26.23;;
3487;SDS011;38546;48.170;11.724;2024-03-02T08:50:56;47.10;;;24.90;;
3487;SDS011;38546;48.170;11.724;2024-03-02T08:53:27;47.83;;;25.50;;
3487;SDS011;38546;48.170;11.724;2024-03-02T08:55:57;53.20;;;27.37;;
3487;SDS011;38546;48.170;11.724;2024-03-02T08:58:28;52.33;;;27.10;;
3487;SDS011;38546;48.170;11.724;2024-03-02T09:00:59;48.40;;;26.00;;
3487;SDS011;38546;48.170;11.724;2024-03-02T09:03:31;53.57;;;27.30;;
3487;SDS011;38546;48.170;11.724;2024-03-02T09:06:03;53.67;;;26.90;;
3487;SDS011;38546;48.170;11.724;2024-03-02T09:08:34;48.63;;;24.47;;
3487;SDS011;38546;48.170;11.724;2024-03-02T09:11:06;48.13;;;25.03;;
3487;SDS011;38546;48.170;11.724;2024-03-02T09:13:37;42.27;;;23.93;;
3487;SDS011;38546;48.170;11.724;2024-03-02T09:16:10;44.13;;;21.77;;
3487;SDS011;38546;48.170;11.724;2024-03-02T09:18:41;50.80;;;26.03;;
3487;SDS011;38546;48.170;11.724;2024-03-02T09:21:12;46.90;;;25.13;;
3487;SDS011;38546;48.170;11.724;2024-03-02T09:23:43;45.97;;;25.30;;
3487;SDS011;38546;48.170;11.724;2024-03-02T09:26:15;42.77;;;23.03;;
3487;SDS011;38546;48.170;11.724;2024-03-02T09:28:46;45.43;;;22.77;;
3487;SDS011;38546;48.170;11.724;2024-03-02T09:31:17;46.73;;;24.90;;
3487;SDS011;38546;48.170;11.724;2024-03-02T09:33:48;41.13;;;22.10;;
3487;SDS011;38546;48.170;11.724;2024-03-02T09:36:21;37.03;;;20.57;;
3487;SDS011;38546;48.170;11.724;2024-03-02T09:38:53;42.63;;;22.97;;
3487;SDS011;38546;48.170;11.724;2024-03-02T09:41:23;44.73;;;21.80;;
3487;SDS011;38546;48.170;11.724;2024-03-02T09:43:55;34.90;;;19.07;;
3487;SDS011;38546;48.170;11.724;2024-03-02T09:46:26;40.93;;;20.77;;
3487;SDS011;38546;48.170;11.724;2024-03-02T09:48:56;33.10;;;19.70;;
3487;SDS011;38546;48.170;11.724;2024-03-02T09:51:27;36.50;;;19.70;;
3487;SDS011;38546;48.170;11.724;2024-03-02T09:53:58;31.87;;;17.93;;
3487;SDS011;38546;48.170;11.724;2024-03-02T09:56:31;32.83;;;16.63;;
3487;SDS011;38546;48.170;11.724;2024-03-02T09:59:02;38.20;;;20.53;;
3487;SDS011;38546;48.170;11.724;2024-03-02T10:01:33;31.70;;;18.00;;
3487;SDS011;38546;48.170;11.724;2024-03-02T10:04:04;33.37;;;18.33;;
3487;SDS011;38546;48.170;11.724;2024-03-02T10:06:35;32.20;;;19.27;;
3487;SDS011;38546;48.170;11.724;2024-03-02T10:09:06;29.97;;;17.20;;
3487;SDS011;38546;48.170;11.724;2024-03-02T10:11:37;31.00;;;17.33;;
3487;SDS011;38546;48.170;11.724;2024-03-02T10:14:09;31.47;;;17.80;;
3487;SDS011;38546;48.170;11.724;2024-03-02T10:16:43;29.50;;;16.93;;
3487;SDS011;38546;48.170;11.724;2024-03-02T10:19:15;35.17;;;19.37;;
3487;SDS011;38546;48.170;11.724;2024-03-02T10:21:56;25.80;;;16.43;;
3487;SDS011;38546;48.170;11.724;2024-03-02T10:24:34;33.20;;;17.20;;
3487;SDS011;38546;48.170;11.724;2024-03-02T10:27:17;27.53;;;16.63;;
3487;SDS011;38546;48.170;11.724;2024-03-02T10:29:57;28.53;;;16.83;;
3487;SDS011;38546;48.170;11.724;2024-03-02T10:32:28;29.80;;;17.00;;
3487;SDS011;38546;48.170;11.724;2024-03-02T10:34:59;31.07;;;17.40;;
3487;SDS011;38546;48.170;11.724;2024-03-02T10:37:30;29.50;;;15.90;;
3487;SDS011;38546;48.170;11.724;2024-03-02T10:40:06;32.57;;;15.50;;
3487;SDS011;38546;48.170;11.724;2024-03-02T10:42:38;25.63;;;15.57;;
3487;SDS011;38546;48.170;11.724;2024-03-02T10:45:10;30.67;;;17.30;;
3487;SDS011;38546;48.170;11.724;2024-03-02T10:47:44;29.27;;;15.57;;
3487;SDS011;38546;48.170;11.724;2024-03-02T10:50:18;26.07;;;16.00;;
3487;SDS011;38546;48.170;11.724;2024-03-02T10:52:49;27.03;;;12.87;;
3487;SDS011;38546;48.170;11.724;2024-03-02T10:55:20;23.40;;;13.80;;
3487;SDS011;38546;48.170;11.724;2024-03-02T10:57:51;20.13;;;13.40;;
3487;SDS011;38546;48.170;11.724;2024-03-02T11:00:25;24.27;;;14.67;;
3487;SDS011;38546;48.170;11.724;2024-03-02T11:03:08;26.33;;;14.20;;
3487;SDS011;38546;48.170;11.724;2024-03-02T11:05:43;25.30;;;14.33;;
3487;SDS011;38546;48.170;11.724;2024-03-02T11:08:16;27.60;;;16.40;;
3487;SDS011;38546;48.170;11.724;2024-03-02T11:11:00;31.63;;;17.07;;
3487;SDS011;38546;48.170;11.724;2024-03-02T11:13:37;28.33;;;15.90;;
3487;SDS011;38546;48.170;11.724;2024-03-02T11:16:12;37.63;;;20.73;;
3487;SDS011;38546;48.170;11.724;2024-03-02T11:19:05;29.87;;;16.50;;
3487;SDS011;38546;48.170;11.724;2024-03-02T11:21:41;26.50;;;15.50;;
3487;SDS011;38546;48.170;11.724;2024-03-02T11:28:05;24.40;;;14.57;;
3487;SDS011;38546;48.170;11.724;2024-03-02T11:30:48;19.93;;;12.57;;
3487;SDS011;38546;48.170;11.724;2024-03-02T11:33:22;33.30;;;17.57;;
3487;SDS011;38546;48.170;11.724;2024-03-02T11:35:55;23.57;;;15.50;;
3487;SDS011;38546;48.170;11.724;2024-03-02T11:38:33;28.20;;;16.10;;
3487;SDS011;38546;48.170;11.724;2024-03-02T11:41:08;33.00;;;19.80;;
3487;SDS011;38546;48.170;11.724;2024-03-02T11:43:39;35.23;;;18.87;;
3487;SDS011;38546;48.170;11.724;2024-03-02T11:46:11;33.67;;;17.83;;
3487;SDS011;38546;48.170;11.724;2024-03-02T11:48:42;27.87;;;16.80;;
3487;SDS011;38546;48.170;11.724;2024-03-02T11:51:13;31.50;;;17.90;;
3487;SDS011;38546;48.170;11.724;2024-03-02T11:53:44;40.90;;;22.60;;
3487;SDS011;38546;48.170;11.724;2024-03-02T11:56:17;39.00;;;20.60;;
3487;SDS011;38546;48.170;11.724;2024-03-02T11:58:49;31.63;;;20.03;;
3487;SDS011;38546;48.170;11.724;2024-03-02T12:01:24;37.27;;;21.33;;
3487;SDS011;38546;48.170;11.724;2024-03-02T12:03:54;33.93;;;20.30;;
3487;SDS011;38546;48.170;11.724;2024-03-02T12:06:25;33.80;;;19.90;;
3487;SDS011;38546;48.170;11.724;2024-03-02T12:08:56;32.67;;;20.27;;
3487;SDS011;38546;48.170;11.724;2024-03-02T12:11:30;30.20;;;18.03;;
3487;SDS011;38546;48.170;11.724;2024-03-02T12:14:00;27.27;;;15.90;;
3487;SDS011;38546;48.170;11.724;2024-03-02T12:16:31;29.87;;;16.87;;
3487;SDS011;38546;48.170;11.724;2024-03-02T12:19:02;28.00;;;16.93;;
3487;SDS011;38546;48.170;11.724;2024-03-02T12:21:36;29.90;;;17.07;;
3487;SDS011;38546;48.170;11.724;2024-03-02T12:24:08;22.70;;;15.13;;
3487;SDS011;38546;48.170;11.724;2024-03-02T12:26:38;23.97;;;14.40;;
3487;SDS011;38546;48.170;11.724;2024-03-02T12:29:10;22.83;;;13.90;;
3487;SDS011;38546;48.170;11.724;2024-03-02T12:31:42;29.67;;;16.70;;
3487;SDS011;38546;48.170;11.724;2024-03-02T12:34:15;36.50;;;20.60;;
3487;SDS011;38546;48.170;11.724;2024-03-02T12:36:47;31.83;;;19.37;;
3487;SDS011;38546;48.170;11.724;2024-03-02T12:39:22;33.57;;;18.20;;
3487;SDS011;38546;48.170;11.724;2024-03-02T12:41:53;28.50;;;17.57;;
3487;SDS011;38546;48.170;11.724;2024-03-02T12:44:25;29.90;;;18.80;;
3487;SDS011;38546;48.170;11.724;2024-03-02T12:46:55;32.77;;;18.13;;
3487;SDS011;38546;48.170;11.724;2024-03-02T12:49:26;29.43;;;17.97;;
3487;SDS011;38546;48.170;11.724;2024-03-02T12:51:58;34.57;;;20.00;;
3487;SDS011;38546;48.170;11.724;2024-03-02T12:54:29;33.03;;;18.73;;
3487;SDS011;38546;48.170;11.724;2024-03-02T12:57:00;28.03;;;18.63;;
3487;SDS011;38546;48.170;11.724;2024-03-02T12:59:32;38.20;;;21.17;;
3487;SDS011;38546;48.170;11.724;2024-03-02T13:02:03;38.67;;;21.47;;
3487;SDS011;38546;48.170;11.724;2024-03-02T13:04:34;38.37;;;19.87;;
3487;SDS011;38546;48.170;11.724;2024-03-02T13:07:04;35.30;;;20.03;;
3487;SDS011;38546;48.170;11.724;2024-03-02T13:09:35;34.20;;;21.67;;
3487;SDS011;38546;48.170;11.724;2024-03-02T13:12:06;38.03;;;21.20;;
3487;SDS011;38546;48.170;11.724;2024-03-02T13:14:37;33.30;;;21.13;;
3487;SDS011;38546;48.170;11.724;2024-03-02T13:17:08;40.80;;;22.27;;
3487;SDS011;38546;48.170;11.724;2024-03-02T13:19:56;36.17;;;20.83;;
3487;SDS011;38546;48.170;11.724;2024-03-02T13:22:28;46.77;;;23.10;;
3487;SDS011;38546;48.170;11.724;2024-03-02T13:24:59;40.23;;;19.73;;
3487;SDS011;38546;48.170;11.724;2024-03-02T13:27:31;38.67;;;22.07;;
3487;SDS011;38546;48.170;11.724;2024-03-02T13:30:03;36.77;;;21.30;;
3487;SDS011;38546;48.170;11.724;2024-03-02T13:32:39;46.07;;;21.67;;
3487;SDS011;38546;48.170;11.724;2024-03-02T13:35:09;36.97;;;19.87;;
3487;SDS011;38546;48.170;11.724;2024-03-02T13:37:41;36.50;;;19.87;;
3487;SDS011;38546;48.170;11.724;2024-03-02T13:40:12;33.97;;;18.47;;
3487;SDS011;38546;48.170;11.724;2024-03-02T13:42:47;37.50;;;20.53;;
3487;SDS011;38546;48.170;11.724;2024-03-02T13:45:19;33.57;;;18.20;;
3487;SDS011;38546;48.170;11.724;2024-03-02T13:47:50;34.67;;;19.73;;
3487;SDS011;38546;48.170;11.724;2024-03-02T13:50:22;34.77;;;19.17;;
3487;SDS011;38546;48.170;11.724;2024-03-02T13:52:52;31.80;;;15.30;;
3487;SDS011;38546;48.170;11.724;2024-03-02T13:55:23;29.17;;;17.20;;
3487;SDS011;38546;48.170;11.724;2024-03-02T13:57:54;28.60;;;14.60;;
3487;SDS011;38546;48.170;11.724;2024-03-02T14:00:25;21.03;;;12.07;;
3487;SDS011;38546;48.170;11.724;2024-03-02T14:02:56;26.00;;;14.37;;
3487;SDS011;38546;48.170;11.724;2024-03-02T14:05:27;33.80;;;16.53;;
3487;SDS011;38546;48.170;11.724;2024-03-02T14:07:57;21.27;;;12.40;;
3487;SDS011;38546;48.170;11.724;2024-03-02T14:10:30;26.50;;;14.33;;
3487;SDS011;38546;48.170;11.724;2024-03-02T14:13:01;26.80;;;16.40;;
3487;SDS011;38546;48.170;11.724;2024-03-02T14:15:31;24.77;;;14.10;;
3487;SDS011;38546;48.170;11.724;2024-03-02T14:18:02;29.90;;;17.07;;
3487;SDS011;38546;48.170;11.724;2024-03-02T14:20:33;33.57;;;15.90;;
3487;SDS011;38546;48.170;11.724;2024-03-02T14:23:04;30.37;;;18.57;;
3487;SDS011;38546;48.170;11.724;2024-03-02T14:25:34;31.63;;;17.50;;
3487;SDS011;38546;48.170;11.724;2024-03-02T14:28:05;31.00;;;16.83;;
3487;SDS011;38546;48.170;11.724;2024-03-02T14:30:36;32.63;;;16.90;;
3487;SDS011;38546;48.170;11.724;2024-03-02T14:33:08;29.70;;;17.70;;
3487;SDS011;38546;48.170;11.724;2024-03-02T14:35:40;30.67;;;16.63;;
3487;SDS011;38546;48.170;11.724;2024-03-02T14:38:12;29.63;;;18.07;;
3487;SDS011;38546;48.170;11.724;2024-03-02T14:40:43;36.53;;;19.50;;
3487;SDS011;38546;48.170;11.724;2024-03-02T14:43:13;38.60;;;18.23;;
3487;SDS011;38546;48.170;11.724;2024-03-02T14:45:44;33.70;;;17.93;;
3487;SDS011;38546;48.170;11.724;2024-03-02T14:48:15;30.30;;;19.03;;
3487;SDS011;38546;48.170;11.724;2024-03-02T14:50:45;34.00;;;18.30;;